Terminal Aerodrome Forecast
Issued by NWS

Current Version | Previous Version | Text Only | Print | Product List | Glossary On
Versions: 1 2 3 4 5 6 7 8 9 10 11 12 13 14 15
000
FTUS46 KSGX 242337
TAFCRQ
TAF
KCRQ 242337Z 2500/2524 24005KT P6SM BKN035
     FM250600 22006KT P6SM BKN022
     FM251000 VRB05KT P6SM BKN017
     FM251700 VRB05KT P6SM BKN025
     FM252000 25010KT P6SM SCT030=

USA.gov is the U.S. government's official web portal to all federal, state and local government web resources and services.